Flight Track Log - Related Links

Times and Time Zones

All times are in EDT time to prevent confusion due to time zone crossing. See the LIA553 flight status page for this flight to view local times or setup timezone preferences in your user account.

Time Position Orientation Groundspeed Altitude Reporting Facility
EDT Latitude Longitude Course Direction KTS MPH feet Rate Location/Type
Fri 01:40:31 PM 18.3167 -64.9333 118° Southeast 150 173 1,100  Level San Juan Center
Fri 01:41:31 PM 18.3000 -64.9000 118° Southeast 160 184 2,400 1,140 Climbing San Juan Center
Fri 01:42:32 PM 18.2833 -64.8500 109° East 170 196 3,400 992 Climbing San Juan Center
Fri 01:43:32 PM 18.2667 -64.7833 105° East 200 230 4,400 1,000 Climbing San Juan Center
Fri 01:44:32 PM 18.3000 -64.7333 55° Northeast 220 253 5,400 1,041 Climbing San Juan Center
Fri 01:45:33 PM 18.3167 -64.6667 75° East 220 253 6,500 1,041 Climbing San Juan Center
Fri 01:46:33 PM 18.3500 -64.6000 62° Northeast 230 265 7,500 1,000 Climbing San Juan Center
Fri 01:47:33 PM 18.3833 -64.5500 55° Northeast 230 265 8,500 942 Climbing San Juan Center
Fri 01:48:34 PM 18.4000 -64.4833 75° East 220 253 9,400 992 Climbing San Juan Center
Fri 01:49:34 PM 18.3833 -64.4167 105° East 240 276 10,500 800 Climbing San Juan Center
Fri 01:50:34 PM 18.3667 -64.3500 105° East 220 253 11,000 248 Climbing San Juan Center
Fri 01:51:35 PM 18.3667 -64.2833 90° East 250 288 11,000  Level San Juan Center
Fri 01:52:35 PM 18.3667 -64.2167 90° East 250 288 11,000  Level San Juan Center
Fri 01:53:35 PM 18.3667 -64.1333 90° East 240 276 11,000  Level San Juan Center
Fri 01:54:36 PM 18.3500 -64.0667 105° East 250 288 11,000  Level San Juan Center
Fri 01:55:36 PM 18.3500 -64.0000 90° East 250 288 11,000  Level San Juan Center
Fri 01:56:36 PM 18.3500 -63.9167 90° East 260 299 11,000  Level San Juan Center
Fri 01:57:36 PM 18.3667 -63.8500 75° East 260 299 11,000 50 Level San Juan Center
Fri 01:58:36 PM 18.3667 -63.7667 90° East 260 299 11,100 100 Climbing San Juan Center
Fri 02:00:00 PM 18.3833 -63.6760 90° East  Level FlightAware Approximate
Fri 02:07:00 PM 18.2535 -63.2340 102° East  Level FlightAware Approximate
Fri 02:08:00 PM 18.2383 -63.1707 113° Southeast  Level FlightAware Approximate
Fri 02:09:00 PM 18.2133 -63.1100 118° Southeast  Level FlightAware Approximate
Fri 02:10:00 PM 18.2000 -63.0500 90° East  Level FlightAware Approximate
Fri 02:11:00 PM 18.2048 -63.0551 90° East  Level Estimated
Fri 02:12:00 PM 18.2000 -63.0500 90° East  Level FlightAware Approximate
Fri 02:13:00 PM 18.2048 -63.0551 90° East  Level Estimated
Fri 02:14:00 PM 18.2000 -63.0500 90° East  Level FlightAware Approximate
Fri 02:15:00 PM 18.2048 -63.0551 90° East  Level Estimated
Fri 02:16:00 PM 18.2000 -63.0500 90° East  Level FlightAware Approximate
Fri 02:17:00 PM 18.2048 -63.0551 90° East  Level Estimated
Fri 02:18:00 PM 18.2000 -63.0500 90° East  Level FlightAware Approximate
Fri 02:19:00 PM 18.2048 -63.0551 90° East  Level Estimated
Fri 02:20:00 PM 18.2000 -63.0500 90° East  Level FlightAware Approximate
Fri 02:21:00 PM 18.2048 -63.0551 90° East  Level Estimated
Fri 02:22:00 PM 18.2000 -63.0500 90° East  Level FlightAware Approximate
Fri 02:23:00 PM 18.2048 -63.0551 90° East  Level Estimated
Fri 02:24:00 PM 18.2000 -63.0500 90° East  Level FlightAware Approximate
Fri 02:25:00 PM 18.2048 -63.0551 90° East  Level Estimated

Login

Don't have an account? Register now (free) for customized features, flight alerts, and more!